SBOSBO ACC / DGAA
Speedbird OnlineSpeedbird Online ACC / DGAA

Kotoka International Airport
06:30 24°C

Location Accra, Ghana
Latitude: 5.605189800262451
Longitude: -0.16678600013256073
Web Wikipedia
Altitude 62 Meter / 205 Feet
Distance 5,105 KM / 3,172 Miles
from London.
Time Zone UTC 0 hours (Africa/Accra)
Codes IATA: ACC
ICAO: DGAA
Currency £1 equals GHS 11.89
Runways
RunwayLength (m)Surface
033403Asphalt
213403Asphalt
Radio
TypeDescriptionFrequency
APPACCRA APP119.5
GNDACCRA GND121.9
TWRACCRA TWR119.1
Live ATC
METAR DGAA 060600Z 25008KT CAVOK 24/23 Q1012 NOSIG
TAF TAF DGAA 060500Z 0606/0712 26010KT 9999 BKN012 BECMG 0612/0614 19012KT SCT015 PROB30 TEMPO 0615/0619 TS FEW030CB
Weather As Of 06 Oct 2022 06:30
Description Clear sky
Wind 15 km/h from West (250°)
Cloud Cover 0%
Precipitation Rain: none, Snow: none
Sunrise 05:47
Sunset 17:50
Lounges Adinkra Lounge, Terminal 3
Rotations During the last 90 days there were
61 flights from LHR
1 flights from JNB
62 flights to LHR


© 2017-2022 Speedbird Online